Terminal Aerodrome Forecast
Issued by NWS Glasgow, MT

Home | Current Version | Previous Version | Text Only | Print | Product List | Glossary On
Versions: 1 2 3 4 5 6 7 8 9 10 11 12 13 14 15 16 17
000
FTUS45 KGGW 050100 AAA
TAFGGW
TAF AMD
KGGW 050148Z 0502/0524 VRB06KT 6SM -SHRA VCTS OVC090CB
     FM050600 VRB04KT P6SM SCT090
     FM051800 VRB05KT P6SM VCSH SCT240=

USA.gov is the U.S. government's official web portal to all federal, state and local government web resources and services.